sensor_id;sensor_type;location;lat;lon;timestamp;P1;durP1;ratioP1;P2;durP2;ratioP2
52718;SDS011;38616;42.140;24.760;2022-07-29T00:02:08;4.38;;;2.53;;
52718;SDS011;38616;42.140;24.760;2022-07-29T00:04:34;9.00;;;3.33;;
52718;SDS011;38616;42.140;24.760;2022-07-29T00:07:00;3.70;;;2.38;;
52718;SDS011;38616;42.140;24.760;2022-07-29T00:09:26;3.92;;;2.30;;
52718;SDS011;38616;42.140;24.760;2022-07-29T00:11:51;4.85;;;2.42;;
52718;SDS011;38616;42.140;24.760;2022-07-29T00:14:16;5.68;;;2.30;;
52718;SDS011;38616;42.140;24.760;2022-07-29T00:16:42;5.97;;;2.65;;
52718;SDS011;38616;42.140;24.760;2022-07-29T00:19:07;7.88;;;2.50;;
52718;SDS011;38616;42.140;24.760;2022-07-29T00:21:33;7.72;;;2.70;;
52718;SDS011;38616;42.140;24.760;2022-07-29T00:23:58;6.25;;;2.75;;
52718;SDS011;38616;42.140;24.760;2022-07-29T00:26:23;7.38;;;3.20;;
52718;SDS011;38616;42.140;24.760;2022-07-29T00:28:49;7.05;;;2.95;;
52718;SDS011;38616;42.140;24.760;2022-07-29T00:31:14;4.45;;;3.00;;
52718;SDS011;38616;42.140;24.760;2022-07-29T00:33:40;7.00;;;2.90;;
52718;SDS011;38616;42.140;24.760;2022-07-29T00:36:05;7.05;;;2.60;;
52718;SDS011;38616;42.140;24.760;2022-07-29T00:38:31;5.07;;;3.00;;
52718;SDS011;38616;42.140;24.760;2022-07-29T00:40:56;5.20;;;3.33;;
52718;SDS011;38616;42.140;24.760;2022-07-29T00:43:22;4.45;;;2.92;;
52718;SDS011;38616;42.140;24.760;2022-07-29T00:45:47;6.97;;;2.60;;
52718;SDS011;38616;42.140;24.760;2022-07-29T00:48:12;7.07;;;3.47;;
52718;SDS011;38616;42.140;24.760;2022-07-29T00:50:38;6.85;;;4.00;;
52718;SDS011;38616;42.140;24.760;2022-07-29T00:53:05;7.47;;;3.53;;
52718;SDS011;38616;42.140;24.760;2022-07-29T00:55:32;6.70;;;3.63;;
52718;SDS011;38616;42.140;24.760;2022-07-29T00:57:58;4.93;;;3.22;;
52718;SDS011;38616;42.140;24.760;2022-07-29T01:00:24;4.80;;;3.50;;
52718;SDS011;38616;42.140;24.760;2022-07-29T01:02:51;9.40;;;3.53;;
52718;SDS011;38616;42.140;24.760;2022-07-29T01:05:17;6.68;;;3.10;;
52718;SDS011;38616;42.140;24.760;2022-07-29T01:07:44;4.85;;;3.13;;
52718;SDS011;38616;42.140;24.760;2022-07-29T01:10:11;6.83;;;3.63;;
52718;SDS011;38616;42.140;24.760;2022-07-29T01:12:38;6.63;;;3.85;;
52718;SDS011;38616;42.140;24.760;2022-07-29T01:15:05;7.88;;;3.53;;
52718;SDS011;38616;42.140;24.760;2022-07-29T01:17:36;4.32;;;3.25;;
52718;SDS011;38616;42.140;24.760;2022-07-29T01:30:38;9.07;;;4.07;;
52718;SDS011;38616;42.140;24.760;2022-07-29T01:33:10;9.10;;;3.63;;
52718;SDS011;38616;42.140;24.760;2022-07-29T01:35:58;6.32;;;3.40;;
52718;SDS011;38616;42.140;24.760;2022-07-29T01:38:30;6.88;;;4.15;;
52718;SDS011;38616;42.140;24.760;2022-07-29T01:41:02;5.97;;;4.03;;
52718;SDS011;38616;42.140;24.760;2022-07-29T01:43:33;7.55;;;4.57;;
52718;SDS011;38616;42.140;24.760;2022-07-29T01:46:09;6.20;;;4.53;;
52718;SDS011;38616;42.140;24.760;2022-07-29T01:48:46;8.75;;;4.25;;
52718;SDS011;38616;42.140;24.760;2022-07-29T01:51:18;6.15;;;4.35;;
52718;SDS011;38616;42.140;24.760;2022-07-29T01:53:47;8.23;;;4.78;;
52718;SDS011;38616;42.140;24.760;2022-07-29T01:56:24;16.40;;;10.68;;
52718;SDS011;38616;42.140;24.760;2022-07-29T01:58:54;10.27;;;5.97;;
52718;SDS011;38616;42.140;24.760;2022-07-29T02:01:22;8.88;;;4.53;;
52718;SDS011;38616;42.140;24.760;2022-07-29T02:03:49;7.43;;;4.28;;
52718;SDS011;38616;42.140;24.760;2022-07-29T02:06:17;9.40;;;4.32;;
52718;SDS011;38616;42.140;24.760;2022-07-29T02:08:45;6.13;;;4.28;;
52718;SDS011;38616;42.140;24.760;2022-07-29T02:11:12;6.97;;;4.50;;
52718;SDS011;38616;42.140;24.760;2022-07-29T02:13:38;9.55;;;4.65;;
52718;SDS011;38616;42.140;24.760;2022-07-29T02:16:06;12.55;;;5.18;;
52718;SDS011;38616;42.140;24.760;2022-07-29T02:18:33;7.18;;;4.88;;
52718;SDS011;38616;42.140;24.760;2022-07-29T02:21:02;11.48;;;4.45;;
52718;SDS011;38616;42.140;24.760;2022-07-29T02:23:28;8.02;;;4.68;;
52718;SDS011;38616;42.140;24.760;2022-07-29T02:28:22;14.95;;;4.50;;
52718;SDS011;38616;42.140;24.760;2022-07-29T02:30:50;7.03;;;4.15;;
52718;SDS011;38616;42.140;24.760;2022-07-29T02:33:18;6.32;;;3.63;;
52718;SDS011;38616;42.140;24.760;2022-07-29T02:35:46;8.70;;;4.13;;
52718;SDS011;38616;42.140;24.760;2022-07-29T02:38:14;6.55;;;4.00;;
52718;SDS011;38616;42.140;24.760;2022-07-29T02:41:00;8.95;;;3.97;;
52718;SDS011;38616;42.140;24.760;2022-07-29T02:43:31;6.15;;;4.00;;
52718;SDS011;38616;42.140;24.760;2022-07-29T02:45:58;8.82;;;4.18;;
52718;SDS011;38616;42.140;24.760;2022-07-29T02:48:34;6.50;;;3.97;;
52718;SDS011;38616;42.140;24.760;2022-07-29T02:51:13;5.20;;;3.88;;
52718;SDS011;38616;42.140;24.760;2022-07-29T02:53:45;9.38;;;3.72;;
52718;SDS011;38616;42.140;24.760;2022-07-29T02:56:14;9.00;;;4.25;;
52718;SDS011;38616;42.140;24.760;2022-07-29T02:58:47;9.07;;;4.13;;
52718;SDS011;38616;42.140;24.760;2022-07-29T03:01:25;7.50;;;3.75;;
52718;SDS011;38616;42.140;24.760;2022-07-29T03:03:55;8.67;;;4.03;;
52718;SDS011;38616;42.140;24.760;2022-07-29T03:06:21;9.38;;;3.88;;
52718;SDS011;38616;42.140;24.760;2022-07-29T03:08:48;7.18;;;4.43;;
52718;SDS011;38616;42.140;24.760;2022-07-29T03:11:14;7.30;;;4.47;;
52718;SDS011;38616;42.140;24.760;2022-07-29T03:13:41;12.93;;;5.20;;
52718;SDS011;38616;42.140;24.760;2022-07-29T03:16:07;13.23;;;4.88;;
52718;SDS011;38616;42.140;24.760;2022-07-29T03:18:33;8.80;;;4.67;;
52718;SDS011;38616;42.140;24.760;2022-07-29T03:21:00;11.15;;;4.43;;
52718;SDS011;38616;42.140;24.760;2022-07-29T03:23:25;8.13;;;4.28;;
52718;SDS011;38616;42.140;24.760;2022-07-29T03:25:53;9.25;;;4.43;;
52718;SDS011;38616;42.140;24.760;2022-07-29T03:28:19;6.80;;;3.83;;
52718;SDS011;38616;42.140;24.760;2022-07-29T03:30:45;6.57;;;3.85;;
52718;SDS011;38616;42.140;24.760;2022-07-29T03:33:10;8.27;;;4.88;;
52718;SDS011;38616;42.140;24.760;2022-07-29T03:35:36;10.20;;;4.97;;
52718;SDS011;38616;42.140;24.760;2022-07-29T03:38:01;11.32;;;5.30;;
52718;SDS011;38616;42.140;24.760;2022-07-29T03:40:30;13.68;;;5.35;;
52718;SDS011;38616;42.140;24.760;2022-07-29T03:42:58;6.88;;;4.32;;
52718;SDS011;38616;42.140;24.760;2022-07-29T03:45:26;8.02;;;4.93;;
52718;SDS011;38616;42.140;24.760;2022-07-29T03:47:57;9.00;;;4.97;;
52718;SDS011;38616;42.140;24.760;2022-07-29T03:50:26;10.02;;;5.35;;
52718;SDS011;38616;42.140;24.760;2022-07-29T03:52:53;11.23;;;4.63;;
52718;SDS011;38616;42.140;24.760;2022-07-29T03:55:19;11.40;;;5.10;;
52718;SDS011;38616;42.140;24.760;2022-07-29T03:57:45;16.02;;;6.63;;
52718;SDS011;38616;42.140;24.760;2022-07-29T04:00:12;19.10;;;10.23;;
52718;SDS011;38616;42.140;24.760;2022-07-29T04:02:38;11.57;;;6.40;;
52718;SDS011;38616;42.140;24.760;2022-07-29T04:05:05;15.68;;;5.97;;
52718;SDS011;38616;42.140;24.760;2022-07-29T04:07:36;10.27;;;5.25;;
52718;SDS011;38616;42.140;24.760;2022-07-29T04:10:01;10.45;;;5.22;;
52718;SDS011;38616;42.140;24.760;2022-07-29T04:12:27;10.73;;;5.35;;
52718;SDS011;38616;42.140;24.760;2022-07-29T04:14:52;10.18;;;5.85;;
52718;SDS011;38616;42.140;24.760;2022-07-29T04:17:18;12.07;;;5.22;;
52718;SDS011;38616;42.140;24.760;2022-07-29T04:19:43;11.70;;;6.18;;
52718;SDS011;38616;42.140;24.760;2022-07-29T04:22:08;9.38;;;5.95;;
52718;SDS011;38616;42.140;24.760;2022-07-29T04:24:34;11.02;;;6.45;;
52718;SDS011;38616;42.140;24.760;2022-07-29T04:26:59;14.32;;;7.10;;
52718;SDS011;38616;42.140;24.760;2022-07-29T04:29:25;12.90;;;6.45;;
52718;SDS011;38616;42.140;24.760;2022-07-29T04:31:50;15.23;;;7.38;;
52718;SDS011;38616;42.140;24.760;2022-07-29T04:34:15;13.85;;;6.70;;
52718;SDS011;38616;42.140;24.760;2022-07-29T04:36:41;13.00;;;7.28;;
52718;SDS011;38616;42.140;24.760;2022-07-29T04:39:06;14.90;;;8.18;;
52718;SDS011;38616;42.140;24.760;2022-07-29T04:41:32;16.67;;;9.45;;
52718;SDS011;38616;42.140;24.760;2022-07-29T04:43:57;19.83;;;8.45;;
52718;SDS011;38616;42.140;24.760;2022-07-29T04:46:22;13.30;;;7.82;;
52718;SDS011;38616;42.140;24.760;2022-07-29T04:48:48;14.52;;;7.53;;
52718;SDS011;38616;42.140;24.760;2022-07-29T04:51:14;18.63;;;9.90;;
52718;SDS011;38616;42.140;24.760;2022-07-29T04:53:40;13.60;;;5.88;;
52718;SDS011;38616;42.140;24.760;2022-07-29T04:56:05;7.20;;;4.80;;
52718;SDS011;38616;42.140;24.760;2022-07-29T04:58:30;9.63;;;4.82;;
52718;SDS011;38616;42.140;24.760;2022-07-29T05:00:56;10.85;;;4.50;;
52718;SDS011;38616;42.140;24.760;2022-07-29T05:03:21;12.32;;;4.60;;
52718;SDS011;38616;42.140;24.760;2022-07-29T05:05:47;11.38;;;4.78;;
52718;SDS011;38616;42.140;24.760;2022-07-29T05:08:12;7.00;;;4.35;;
52718;SDS011;38616;42.140;24.760;2022-07-29T05:10:38;7.00;;;4.28;;
52718;SDS011;38616;42.140;24.760;2022-07-29T05:13:07;11.20;;;5.00;;
52718;SDS011;38616;42.140;24.760;2022-07-29T05:15:34;7.25;;;5.15;;
52718;SDS011;38616;42.140;24.760;2022-07-29T05:20:26;8.18;;;5.15;;
52718;SDS011;38616;42.140;24.760;2022-07-29T05:22:57;6.90;;;4.80;;
52718;SDS011;38616;42.140;24.760;2022-07-29T05:25:24;10.93;;;5.65;;
52718;SDS011;38616;42.140;24.760;2022-07-29T05:27:50;8.73;;;5.33;;
52718;SDS011;38616;42.140;24.760;2022-07-29T05:30:16;8.05;;;5.10;;
52718;SDS011;38616;42.140;24.760;2022-07-29T05:32:42;7.25;;;5.13;;
52718;SDS011;38616;42.140;24.760;2022-07-29T05:35:07;11.90;;;6.07;;
52718;SDS011;38616;42.140;24.760;2022-07-29T05:37:33;11.25;;;5.45;;
52718;SDS011;38616;42.140;24.760;2022-07-29T05:39:59;8.38;;;4.55;;
52718;SDS011;38616;42.140;24.760;2022-07-29T05:42:25;11.75;;;5.05;;
52718;SDS011;38616;42.140;24.760;2022-07-29T05:44:51;10.93;;;5.13;;
52718;SDS011;38616;42.140;24.760;2022-07-29T05:47:17;11.68;;;5.20;;
52718;SDS011;38616;42.140;24.760;2022-07-29T05:49:42;7.90;;;3.95;;
52718;SDS011;38616;42.140;24.760;2022-07-29T05:52:08;12.68;;;7.30;;
52718;SDS011;38616;42.140;24.760;2022-07-29T05:54:34;10.35;;;5.75;;
52718;SDS011;38616;42.140;24.760;2022-07-29T05:56:59;17.85;;;11.40;;
52718;SDS011;38616;42.140;24.760;2022-07-29T05:59:25;7.78;;;5.20;;
52718;SDS011;38616;42.140;24.760;2022-07-29T06:01:51;14.32;;;5.50;;
52718;SDS011;38616;42.140;24.760;2022-07-29T06:04:16;10.50;;;5.07;;
52718;SDS011;38616;42.140;24.760;2022-07-29T06:06:42;17.08;;;7.28;;
52718;SDS011;38616;42.140;24.760;2022-07-29T06:09:07;9.65;;;4.97;;
52718;SDS011;38616;42.140;24.760;2022-07-29T06:11:32;8.68;;;6.20;;
52718;SDS011;38616;42.140;24.760;2022-07-29T06:13:58;13.43;;;6.13;;
52718;SDS011;38616;42.140;24.760;2022-07-29T06:16:23;9.23;;;5.53;;
52718;SDS011;38616;42.140;24.760;2022-07-29T06:18:49;12.75;;;5.60;;
52718;SDS011;38616;42.140;24.760;2022-07-29T06:21:14;8.15;;;5.43;;
52718;SDS011;38616;42.140;24.760;2022-07-29T06:23:40;10.90;;;5.38;;
52718;SDS011;38616;42.140;24.760;2022-07-29T06:26:05;15.95;;;5.53;;
52718;SDS011;38616;42.140;24.760;2022-07-29T06:28:31;14.55;;;7.00;;
52718;SDS011;38616;42.140;24.760;2022-07-29T06:30:57;11.93;;;6.30;;
52718;SDS011;38616;42.140;24.760;2022-07-29T06:33:23;10.38;;;6.53;;
52718;SDS011;38616;42.140;24.760;2022-07-29T06:35:49;7.57;;;5.80;;
52718;SDS011;38616;42.140;24.760;2022-07-29T06:38:14;9.30;;;6.53;;
52718;SDS011;38616;42.140;24.760;2022-07-29T06:40:40;12.13;;;6.97;;
52718;SDS011;38616;42.140;24.760;2022-07-29T06:43:59;11.98;;;7.90;;
52718;SDS011;38616;42.140;24.760;2022-07-29T06:46:18;14.38;;;6.20;;
52718;SDS011;38616;42.140;24.760;2022-07-29T06:48:44;15.65;;;6.97;;
52718;SDS011;38616;42.140;24.760;2022-07-29T06:51:11;11.00;;;5.57;;
52718;SDS011;38616;42.140;24.760;2022-07-29T06:53:37;9.77;;;6.03;;
52718;SDS011;38616;42.140;24.760;2022-07-29T06:56:04;9.45;;;5.97;;
52718;SDS011;38616;42.140;24.760;2022-07-29T06:58:30;12.38;;;7.53;;
52718;SDS011;38616;42.140;24.760;2022-07-29T07:00:56;12.90;;;6.45;;
52718;SDS011;38616;42.140;24.760;2022-07-29T07:03:26;12.73;;;7.95;;
52718;SDS011;38616;42.140;24.760;2022-07-29T07:05:52;17.02;;;9.32;;
52718;SDS011;38616;42.140;24.760;2022-07-29T07:08:18;12.85;;;6.43;;
52718;SDS011;38616;42.140;24.760;2022-07-29T07:10:45;13.30;;;5.72;;
52718;SDS011;38616;42.140;24.760;2022-07-29T07:13:11;15.05;;;6.78;;
52718;SDS011;38616;42.140;24.760;2022-07-29T07:15:37;9.25;;;5.68;;
52718;SDS011;38616;42.140;24.760;2022-07-29T07:18:03;10.50;;;6.37;;
52718;SDS011;38616;42.140;24.760;2022-07-29T07:20:30;9.48;;;5.10;;
52718;SDS011;38616;42.140;24.760;2022-07-29T07:22:56;13.38;;;6.03;;
52718;SDS011;38616;42.140;24.760;2022-07-29T07:25:21;12.05;;;6.45;;
52718;SDS011;38616;42.140;24.760;2022-07-29T07:27:47;7.70;;;5.30;;
52718;SDS011;38616;42.140;24.760;2022-07-29T07:30:12;7.35;;;5.35;;
52718;SDS011;38616;42.140;24.760;2022-07-29T07:32:38;6.88;;;4.90;;
52718;SDS011;38616;42.140;24.760;2022-07-29T07:35:05;8.73;;;6.57;;
52718;SDS011;38616;42.140;24.760;2022-07-29T07:37:33;13.02;;;7.07;;
52718;SDS011;38616;42.140;24.760;2022-07-29T07:39:59;8.55;;;5.47;;
52718;SDS011;38616;42.140;24.760;2022-07-29T07:42:26;12.98;;;5.43;;
52718;SDS011;38616;42.140;24.760;2022-07-29T07:44:51;8.18;;;5.20;;
52718;SDS011;38616;42.140;24.760;2022-07-29T07:47:17;9.60;;;4.80;;
52718;SDS011;38616;42.140;24.760;2022-07-29T07:49:48;10.45;;;4.90;;
52718;SDS011;38616;42.140;24.760;2022-07-29T07:52:15;16.23;;;5.00;;
52718;SDS011;38616;42.140;24.760;2022-07-29T07:54:41;7.13;;;4.40;;
52718;SDS011;38616;42.140;24.760;2022-07-29T07:57:08;9.48;;;4.57;;
52718;SDS011;38616;42.140;24.760;2022-07-29T07:59:34;14.25;;;4.97;;
52718;SDS011;38616;42.140;24.760;2022-07-29T08:01:59;7.80;;;4.10;;
52718;SDS011;38616;42.140;24.760;2022-07-29T08:04:25;5.85;;;3.42;;
52718;SDS011;38616;42.140;24.760;2022-07-29T08:06:51;6.47;;;4.10;;
52718;SDS011;38616;42.140;24.760;2022-07-29T08:09:19;13.73;;;3.63;;
52718;SDS011;38616;42.140;24.760;2022-07-29T08:11:47;6.65;;;3.78;;
52718;SDS011;38616;42.140;24.760;2022-07-29T08:14:13;13.65;;;8.52;;
52718;SDS011;38616;42.140;24.760;2022-07-29T08:16:39;9.52;;;3.80;;
52718;SDS011;38616;42.140;24.760;2022-07-29T08:19:05;11.60;;;4.32;;
52718;SDS011;38616;42.140;24.760;2022-07-29T08:21:31;6.53;;;3.67;;
52718;SDS011;38616;42.140;24.760;2022-07-29T08:23:56;8.23;;;3.10;;
52718;SDS011;38616;42.140;24.760;2022-07-29T08:26:41;6.55;;;2.88;;
52718;SDS011;38616;42.140;24.760;2022-07-29T08:29:08;5.88;;;3.47;;
52718;SDS011;38616;42.140;24.760;2022-07-29T08:31:34;4.78;;;3.50;;
52718;SDS011;38616;42.140;24.760;2022-07-29T08:34:00;8.38;;;3.10;;
52718;SDS011;38616;42.140;24.760;2022-07-29T08:36:26;7.10;;;2.95;;
52718;SDS011;38616;42.140;24.760;2022-07-29T08:38:51;6.47;;;3.67;;
52718;SDS011;38616;42.140;24.760;2022-07-29T08:41:20;6.43;;;3.70;;
52718;SDS011;38616;42.140;24.760;2022-07-29T08:43:47;6.65;;;3.17;;
52718;SDS011;38616;42.140;24.760;2022-07-29T08:46:14;9.18;;;3.55;;
52718;SDS011;38616;42.140;24.760;2022-07-29T08:48:40;5.43;;;3.00;;
52718;SDS011;38616;42.140;24.760;2022-07-29T08:51:06;4.13;;;3.38;;
52718;SDS011;38616;42.140;24.760;2022-07-29T08:53:32;8.27;;;2.85;;
52718;SDS011;38616;42.140;24.760;2022-07-29T08:55:58;5.65;;;3.58;;
52718;SDS011;38616;42.140;24.760;2022-07-29T08:58:24;4.82;;;3.17;;
52718;SDS011;38616;42.140;24.760;2022-07-29T09:00:51;6.93;;;2.95;;
52718;SDS011;38616;42.140;24.760;2022-07-29T09:03:19;4.50;;;2.88;;
52718;SDS011;38616;42.140;24.760;2022-07-29T09:05:47;6.18;;;3.10;;
52718;SDS011;38616;42.140;24.760;2022-07-29T09:08:13;4.85;;;2.92;;
52718;SDS011;38616;42.140;24.760;2022-07-29T09:10:40;5.10;;;3.42;;
52718;SDS011;38616;42.140;24.760;2022-07-29T09:13:05;3.58;;;3.05;;
52718;SDS011;38616;42.140;24.760;2022-07-29T09:15:31;4.43;;;2.72;;
52718;SDS011;38616;42.140;24.760;2022-07-29T09:17:56;4.18;;;3.08;;
52718;SDS011;38616;42.140;24.760;2022-07-29T09:20:23;12.68;;;7.55;;
52718;SDS011;38616;42.140;24.760;2022-07-29T09:22:51;7.55;;;3.58;;
52718;SDS011;38616;42.140;24.760;2022-07-29T09:25:33;4.60;;;2.78;;
52718;SDS011;38616;42.140;24.760;2022-07-29T09:28:07;3.72;;;2.72;;
52718;SDS011;38616;42.140;24.760;2022-07-29T09:30:35;6.03;;;3.50;;
52718;SDS011;38616;42.140;24.760;2022-07-29T09:33:14;3.30;;;2.53;;
52718;SDS011;38616;42.140;24.760;2022-07-29T09:35:40;3.78;;;2.88;;
52718;SDS011;38616;42.140;24.760;2022-07-29T09:38:14;6.30;;;2.55;;
52718;SDS011;38616;42.140;24.760;2022-07-29T09:40:40;4.80;;;2.40;;
52718;SDS011;38616;42.140;24.760;2022-07-29T09:43:09;3.72;;;2.67;;
52718;SDS011;38616;42.140;24.760;2022-07-29T09:45:36;4.82;;;3.05;;
52718;SDS011;38616;42.140;24.760;2022-07-29T09:48:19;4.80;;;2.42;;
52718;SDS011;38616;42.140;24.760;2022-07-29T09:53:37;5.18;;;2.88;;
52718;SDS011;38616;42.140;24.760;2022-07-29T09:56:05;5.40;;;2.92;;
52718;SDS011;38616;42.140;24.760;2022-07-29T09:58:30;4.80;;;2.80;;
52718;SDS011;38616;42.140;24.760;2022-07-29T10:00:58;3.85;;;2.60;;
52718;SDS011;38616;42.140;24.760;2022-07-29T10:03:24;4.18;;;2.45;;
52718;SDS011;38616;42.140;24.760;2022-07-29T10:06:05;3.20;;;2.65;;
52718;SDS011;38616;42.140;24.760;2022-07-29T10:08:35;2.23;;;2.00;;
52718;SDS011;38616;42.140;24.760;2022-07-29T10:11:17;4.40;;;2.40;;
52718;SDS011;38616;42.140;24.760;2022-07-29T10:13:44;3.05;;;2.55;;
52718;SDS011;38616;42.140;24.760;2022-07-29T10:16:13;4.13;;;2.05;;
52718;SDS011;38616;42.140;24.760;2022-07-29T10:18:40;7.47;;;2.42;;
52718;SDS011;38616;42.140;24.760;2022-07-29T10:21:07;6.28;;;2.85;;
52718;SDS011;38616;42.140;24.760;2022-07-29T10:23:34;3.05;;;2.55;;
52718;SDS011;38616;42.140;24.760;2022-07-29T10:26:00;3.23;;;2.57;;
52718;SDS011;38616;42.140;24.760;2022-07-29T10:28:27;4.28;;;2.38;;
52718;SDS011;38616;42.140;24.760;2022-07-29T10:30:57;4.78;;;2.30;;
52718;SDS011;38616;42.140;24.760;2022-07-29T10:41:52;3.22;;;2.63;;
52718;SDS011;38616;42.140;24.760;2022-07-29T10:44:27;8.20;;;5.63;;
52718;SDS011;38616;42.140;24.760;2022-07-29T10:46:53;4.35;;;3.70;;
52718;SDS011;38616;42.140;24.760;2022-07-29T10:49:20;4.13;;;2.63;;
52718;SDS011;38616;42.140;24.760;2022-07-29T10:52:08;7.13;;;3.05;;
52718;SDS011;38616;42.140;24.760;2022-07-29T10:59:38;5.70;;;2.58;;
52718;SDS011;38616;42.140;24.760;2022-07-29T11:07:23;3.85;;;2.95;;
52718;SDS011;38616;42.140;24.760;2022-07-29T11:12:50;5.20;;;3.20;;
52718;SDS011;38616;42.140;24.760;2022-07-29T11:15:17;5.10;;;2.83;;
52718;SDS011;38616;42.140;24.760;2022-07-29T11:31:43;8.05;;;3.33;;
52718;SDS011;38616;42.140;24.760;2022-07-29T11:34:17;7.20;;;2.90;;
52718;SDS011;38616;42.140;24.760;2022-07-29T11:39:36;6.65;;;2.95;;
52718;SDS011;38616;42.140;24.760;2022-07-29T11:47:33;6.88;;;2.45;;
52718;SDS011;38616;42.140;24.760;2022-07-29T11:50:07;3.47;;;2.40;;
52718;SDS011;38616;42.140;24.760;2022-07-29T11:55:04;4.78;;;2.65;;
52718;SDS011;38616;42.140;24.760;2022-07-29T11:57:31;5.13;;;2.70;;
52718;SDS011;38616;42.140;24.760;2022-07-29T11:59:59;3.03;;;2.38;;
52718;SDS011;38616;42.140;24.760;2022-07-29T12:02:24;4.50;;;2.72;;
52718;SDS011;38616;42.140;24.760;2022-07-29T12:05:04;6.22;;;2.67;;
52718;SDS011;38616;42.140;24.760;2022-07-29T12:07:30;3.47;;;2.25;;
52718;SDS011;38616;42.140;24.760;2022-07-29T12:09:57;3.78;;;2.65;;
52718;SDS011;38616;42.140;24.760;2022-07-29T12:12:22;4.45;;;2.80;;
52718;SDS011;38616;42.140;24.760;2022-07-29T12:14:49;3.17;;;2.50;;
52718;SDS011;38616;42.140;24.760;2022-07-29T12:17:28;2.95;;;2.20;;
52718;SDS011;38616;42.140;24.760;2022-07-29T12:19:53;4.03;;;2.80;;
52718;SDS011;38616;42.140;24.760;2022-07-29T12:22:27;7.28;;;2.42;;
52718;SDS011;38616;42.140;24.760;2022-07-29T12:27:35;3.33;;;2.72;;
52718;SDS011;38616;42.140;24.760;2022-07-29T12:30:06;2.97;;;2.40;;
52718;SDS011;38616;42.140;24.760;2022-07-29T12:32:43;2.70;;;2.30;;
52718;SDS011;38616;42.140;24.760;2022-07-29T12:35:13;2.97;;;2.20;;
52718;SDS011;38616;42.140;24.760;2022-07-29T12:37:40;6.65;;;2.38;;
52718;SDS011;38616;42.140;24.760;2022-07-29T12:40:09;7.60;;;2.97;;
52718;SDS011;38616;42.140;24.760;2022-07-29T12:42:36;4.47;;;2.42;;
52718;SDS011;38616;42.140;24.760;2022-07-29T12:45:02;5.38;;;2.65;;
52718;SDS011;38616;42.140;24.760;2022-07-29T12:47:28;6.22;;;3.42;;
52718;SDS011;38616;42.140;24.760;2022-07-29T12:50:11;4.00;;;2.47;;
52718;SDS011;38616;42.140;24.760;2022-07-29T12:52:39;5.70;;;2.88;;
52718;SDS011;38616;42.140;24.760;2022-07-29T12:55:05;4.00;;;2.60;;
52718;SDS011;38616;42.140;24.760;2022-07-29T12:57:31;5.40;;;2.67;;
52718;SDS011;38616;42.140;24.760;2022-07-29T13:00:10;6.22;;;2.63;;
52718;SDS011;38616;42.140;24.760;2022-07-29T13:02:37;3.58;;;2.78;;
52718;SDS011;38616;42.140;24.760;2022-07-29T13:05:05;6.07;;;2.60;;
52718;SDS011;38616;42.140;24.760;2022-07-29T13:07:31;10.80;;;2.90;;
52718;SDS011;38616;42.140;24.760;2022-07-29T13:10:13;5.07;;;2.80;;
52718;SDS011;38616;42.140;24.760;2022-07-29T13:15:29;4.30;;;2.75;;
52718;SDS011;38616;42.140;24.760;2022-07-29T13:17:55;3.58;;;2.45;;
52718;SDS011;38616;42.140;24.760;2022-07-29T13:20:23;4.47;;;2.80;;
52718;SDS011;38616;42.140;24.760;2022-07-29T13:22:50;7.60;;;3.08;;
52718;SDS011;38616;42.140;24.760;2022-07-29T13:25:23;4.45;;;3.00;;
52718;SDS011;38616;42.140;24.760;2022-07-29T13:27:53;8.10;;;3.78;;
52718;SDS011;38616;42.140;24.760;2022-07-29T13:30:19;5.10;;;2.58;;
52718;SDS011;38616;42.140;24.760;2022-07-29T13:32:45;4.45;;;2.88;;
52718;SDS011;38616;42.140;24.760;2022-07-29T13:35:11;5.55;;;2.92;;
52718;SDS011;38616;42.140;24.760;2022-07-29T13:37:38;6.88;;;2.92;;
52718;SDS011;38616;42.140;24.760;2022-07-29T13:40:04;4.80;;;3.33;;
52718;SDS011;38616;42.140;24.760;2022-07-29T13:42:31;4.88;;;3.00;;
52718;SDS011;38616;42.140;24.760;2022-07-29T13:44:57;5.50;;;2.75;;
52718;SDS011;38616;42.140;24.760;2022-07-29T13:47:23;6.07;;;3.20;;
52718;SDS011;38616;42.140;24.760;2022-07-29T13:49:48;6.43;;;3.20;;
52718;SDS011;38616;42.140;24.760;2022-07-29T13:52:14;5.78;;;2.63;;
52718;SDS011;38616;42.140;24.760;2022-07-29T13:54:40;5.53;;;2.80;;
52718;SDS011;38616;42.140;24.760;2022-07-29T13:57:06;7.57;;;2.97;;
52718;SDS011;38616;42.140;24.760;2022-07-29T13:59:32;5.75;;;3.10;;
52718;SDS011;38616;42.140;24.760;2022-07-29T14:01:58;3.22;;;2.60;;
52718;SDS011;38616;42.140;24.760;2022-07-29T14:04:23;4.40;;;2.95;;
52718;SDS011;38616;42.140;24.760;2022-07-29T14:06:49;7.40;;;3.58;;
52718;SDS011;38616;42.140;24.760;2022-07-29T14:09:15;5.60;;;3.10;;
52718;SDS011;38616;42.140;24.760;2022-07-29T14:11:40;7.20;;;2.75;;
52718;SDS011;38616;42.140;24.760;2022-07-29T14:14:06;4.60;;;2.75;;
52718;SDS011;38616;42.140;24.760;2022-07-29T14:16:32;8.17;;;3.23;;
52718;SDS011;38616;42.140;24.760;2022-07-29T14:18:58;7.78;;;2.53;;
52718;SDS011;38616;42.140;24.760;2022-07-29T14:21:23;3.55;;;2.92;;
52718;SDS011;38616;42.140;24.760;2022-07-29T14:23:49;8.90;;;3.05;;
52718;SDS011;38616;42.140;24.760;2022-07-29T14:26:14;4.18;;;2.80;;
52718;SDS011;38616;42.140;24.760;2022-07-29T14:28:40;7.75;;;2.65;;
52718;SDS011;38616;42.140;24.760;2022-07-29T14:31:05;8.05;;;3.13;;
52718;SDS011;38616;42.140;24.760;2022-07-29T14:33:31;3.10;;;2.38;;
52718;SDS011;38616;42.140;24.760;2022-07-29T14:35:56;3.15;;;2.25;;
52718;SDS011;38616;42.140;24.760;2022-07-29T14:38:21;3.25;;;2.28;;
52718;SDS011;38616;42.140;24.760;2022-07-29T14:40:47;8.55;;;2.47;;
52718;SDS011;38616;42.140;24.760;2022-07-29T14:43:13;4.47;;;2.90;;
52718;SDS011;38616;42.140;24.760;2022-07-29T14:45:39;3.73;;;2.67;;
52718;SDS011;38616;42.140;24.760;2022-07-29T14:48:05;6.22;;;2.15;;
52718;SDS011;38616;42.140;24.760;2022-07-29T14:50:31;4.78;;;2.40;;
52718;SDS011;38616;42.140;24.760;2022-07-29T14:52:56;4.25;;;2.78;;
52718;SDS011;38616;42.140;24.760;2022-07-29T14:55:22;3.45;;;2.42;;
52718;SDS011;38616;42.140;24.760;2022-07-29T14:57:47;3.28;;;2.30;;
52718;SDS011;38616;42.140;24.760;2022-07-29T15:00:13;4.30;;;2.10;;
52718;SDS011;38616;42.140;24.760;2022-07-29T15:02:39;4.55;;;2.90;;
52718;SDS011;38616;42.140;24.760;2022-07-29T15:05:04;3.83;;;2.40;;
52718;SDS011;38616;42.140;24.760;2022-07-29T15:07:30;6.80;;;3.50;;
52718;SDS011;38616;42.140;24.760;2022-07-29T15:09:56;4.57;;;2.80;;
52718;SDS011;38616;42.140;24.760;2022-07-29T15:12:21;10.10;;;3.15;;
52718;SDS011;38616;42.140;24.760;2022-07-29T15:14:46;5.90;;;2.20;;
52718;SDS011;38616;42.140;24.760;2022-07-29T15:17:12;8.27;;;2.70;;
52718;SDS011;38616;42.140;24.760;2022-07-29T15:19:37;2.53;;;2.28;;
52718;SDS011;38616;42.140;24.760;2022-07-29T15:22:03;5.38;;;2.28;;
52718;SDS011;38616;42.140;24.760;2022-07-29T15:24:30;4.25;;;2.58;;
52718;SDS011;38616;42.140;24.760;2022-07-29T15:26:56;5.13;;;2.47;;
52718;SDS011;38616;42.140;24.760;2022-07-29T15:29:21;5.95;;;2.63;;
52718;SDS011;38616;42.140;24.760;2022-07-29T15:31:47;3.05;;;2.03;;
52718;SDS011;38616;42.140;24.760;2022-07-29T15:34:12;3.80;;;2.55;;
52718;SDS011;38616;42.140;24.760;2022-07-29T15:36:38;7.13;;;2.55;;
52718;SDS011;38616;42.140;24.760;2022-07-29T15:39:04;5.50;;;3.28;;
52718;SDS011;38616;42.140;24.760;2022-07-29T15:41:29;8.02;;;3.10;;
52718;SDS011;38616;42.140;24.760;2022-07-29T15:43:55;3.17;;;2.65;;